createdAt,value
2023-05-23T00:01:46.774Z,15.00
2023-05-23T00:04:18.743Z,14.90
2023-05-23T00:06:50.598Z,15.00
2023-05-23T00:09:18.808Z,14.90
2023-05-23T00:11:46.930Z,14.80
2023-05-23T00:14:15.948Z,14.80
2023-05-23T00:16:44.835Z,14.70
2023-05-23T00:19:15.121Z,14.70
2023-05-23T00:21:44.060Z,14.60
2023-05-23T00:24:13.443Z,14.60
2023-05-23T00:26:41.463Z,14.60
2023-05-23T00:29:15.668Z,14.60
2023-05-23T00:31:46.732Z,14.50
2023-05-23T00:34:15.809Z,14.60
2023-05-23T00:36:43.922Z,14.60
2023-05-23T00:39:19.087Z,14.50
2023-05-23T00:41:51.897Z,14.50
2023-05-23T00:44:21.377Z,14.50
2023-05-23T00:46:53.204Z,14.40
2023-05-23T00:49:22.205Z,14.30
2023-05-23T00:51:50.759Z,14.30
2023-05-23T00:54:29.581Z,14.20
2023-05-23T00:56:58.033Z,14.20
2023-05-23T00:59:27.096Z,14.10
2023-05-23T01:01:57.743Z,14.10
2023-05-23T01:04:26.669Z,14.00
2023-05-23T01:06:56.727Z,14.00
2023-05-23T01:09:30.810Z,14.00
2023-05-23T01:12:16.784Z,14.10
2023-05-23T01:14:52.652Z,14.10
2023-05-23T01:17:26.991Z,14.10
2023-05-23T01:20:01.516Z,14.10
2023-05-23T01:22:45.765Z,14.10
2023-05-23T01:25:29.103Z,14.10
2023-05-23T01:28:01.332Z,14.10
2023-05-23T01:30:35.525Z,14.10
2023-05-23T01:33:08.923Z,14.00
2023-05-23T01:35:37.739Z,14.00
2023-05-23T01:38:05.878Z,14.00
2023-05-23T01:40:33.964Z,14.00
2023-05-23T01:43:03.667Z,14.00
2023-05-23T01:45:32.736Z,14.00
2023-05-23T01:48:01.673Z,14.00
2023-05-23T01:50:30.667Z,14.00
2023-05-23T01:53:02.015Z,14.10
2023-05-23T01:55:31.102Z,14.00
2023-05-23T01:58:00.729Z,14.10
2023-05-23T02:00:30.156Z,14.10
2023-05-23T02:02:59.236Z,14.10
2023-05-23T02:05:27.382Z,14.10
2023-05-23T02:07:55.358Z,14.10
2023-05-23T02:10:24.695Z,14.10
2023-05-23T02:12:52.661Z,14.00
2023-05-23T02:15:21.330Z,14.00
2023-05-23T02:17:51.804Z,13.90
2023-05-23T02:20:22.533Z,13.90
2023-05-23T02:22:50.544Z,13.80
2023-05-23T02:25:18.577Z,13.90
2023-05-23T02:27:46.654Z,13.90
2023-05-23T02:30:15.351Z,13.90
2023-05-23T02:32:46.237Z,13.90
2023-05-23T02:35:15.785Z,14.00
2023-05-23T02:37:43.932Z,14.00
2023-05-23T02:40:12.567Z,14.00
2023-05-23T02:42:40.785Z,14.00
2023-05-23T02:45:10.099Z,14.00
2023-05-23T02:47:38.576Z,14.00
2023-05-23T02:50:07.776Z,14.00
2023-05-23T02:52:38.838Z,14.00
2023-05-23T02:55:07.872Z,14.00
2023-05-23T02:57:41.723Z,14.00
2023-05-23T03:00:11.952Z,14.00
2023-05-23T03:02:44.973Z,13.90
2023-05-23T03:05:13.070Z,13.90
2023-05-23T03:07:42.450Z,13.80
2023-05-23T03:10:13.122Z,13.70
2023-05-23T03:12:41.150Z,13.60
2023-05-23T03:15:09.958Z,13.60
2023-05-23T03:17:40.666Z,13.50
2023-05-23T03:20:09.977Z,13.50
2023-05-23T03:22:41.853Z,13.40
2023-05-23T03:25:11.516Z,13.40
2023-05-23T03:27:39.954Z,13.40
2023-05-23T03:30:09.233Z,13.30
2023-05-23T03:32:37.791Z,13.30
2023-05-23T03:35:06.283Z,13.30
2023-05-23T03:37:34.353Z,13.30
2023-05-23T03:40:02.304Z,13.30
2023-05-23T03:42:32.804Z,13.40
2023-05-23T03:45:00.782Z,13.40
2023-05-23T03:47:28.820Z,13.40
2023-05-23T03:49:59.397Z,13.40
2023-05-23T03:52:28.900Z,13.40
2023-05-23T03:54:57.207Z,13.50
2023-05-23T03:57:25.495Z,13.50
2023-05-23T03:59:54.853Z,13.60
2023-05-23T04:02:23.297Z,13.60
2023-05-23T04:04:51.572Z,13.70
2023-05-23T04:07:19.630Z,13.70
2023-05-23T04:09:48.003Z,13.70
2023-05-23T04:12:16.377Z,13.70
2023-05-23T04:14:46.322Z,13.70
2023-05-23T04:17:16.199Z,13.80
2023-05-23T04:19:45.032Z,13.80
2023-05-23T04:22:13.251Z,13.70
2023-05-23T04:24:41.272Z,13.80
2023-05-23T04:27:09.405Z,13.80
2023-05-23T04:29:38.572Z,13.80
2023-05-23T04:32:07.862Z,13.90
2023-05-23T04:34:38.026Z,13.90
2023-05-23T04:37:07.217Z,14.00
2023-05-23T04:39:36.064Z,14.10
2023-05-23T04:42:30.463Z,14.20
2023-05-23T04:45:09.556Z,14.30
2023-05-23T04:48:03.959Z,14.30
2023-05-23T04:50:42.777Z,14.40
2023-05-23T04:53:10.943Z,14.40
2023-05-23T04:55:40.244Z,14.40
2023-05-23T04:58:14.042Z,14.50
2023-05-23T05:00:43.268Z,14.50
2023-05-23T05:03:13.770Z,14.50
2023-05-23T05:05:47.919Z,14.70
2023-05-23T05:08:20.267Z,14.80
2023-05-23T05:10:51.272Z,14.90
2023-05-23T05:13:21.167Z,14.90
2023-05-23T05:15:52.793Z,15.00
2023-05-23T05:18:20.955Z,15.10
2023-05-23T05:20:50.820Z,15.10
2023-05-23T05:23:18.874Z,15.20
2023-05-23T05:25:47.842Z,15.20
2023-05-23T05:28:16.135Z,15.20
2023-05-23T05:30:54.410Z,15.20
2023-05-23T05:33:24.904Z,15.30
2023-05-23T05:36:09.942Z,15.30
2023-05-23T05:38:37.980Z,15.30
2023-05-23T05:41:08.145Z,15.30
2023-05-23T05:43:44.171Z,15.30
2023-05-23T05:46:12.587Z,15.40
2023-05-23T05:48:41.717Z,15.50
2023-05-23T05:51:16.583Z,15.60
2023-05-23T05:53:46.379Z,15.70
2023-05-23T05:56:14.401Z,15.80
2023-05-23T05:58:43.841Z,15.90
2023-05-23T06:01:17.977Z,16.00
2023-05-23T06:03:46.327Z,16.10
2023-05-23T06:06:15.925Z,16.30
2023-05-23T06:08:44.474Z,16.30
2023-05-23T06:11:18.290Z,16.40
2023-05-23T06:13:46.687Z,16.50
2023-05-23T06:16:15.305Z,16.70
2023-05-23T06:18:45.222Z,16.80
2023-05-23T06:21:13.447Z,17.00
2023-05-23T06:23:43.780Z,17.00
2023-05-23T06:26:12.128Z,17.00
2023-05-23T06:28:40.597Z,17.00
2023-05-23T06:31:11.835Z,17.00
2023-05-23T06:33:39.926Z,17.00
2023-05-23T06:36:08.295Z,17.00
2023-05-23T06:38:36.545Z,17.00
2023-05-23T06:41:07.187Z,16.90
2023-05-23T06:43:36.336Z,16.90
2023-05-23T06:46:23.781Z,16.80
2023-05-23T06:48:59.485Z,16.70
2023-05-23T06:51:40.824Z,16.70
2023-05-23T06:54:08.935Z,16.70
2023-05-23T06:56:38.593Z,16.80
2023-05-23T06:59:07.036Z,16.80
2023-05-23T07:01:35.938Z,16.90
2023-05-23T07:04:04.007Z,16.90
2023-05-23T07:06:32.708Z,16.90
2023-05-23T07:09:01.193Z,16.80
2023-05-23T07:11:29.412Z,16.80
2023-05-23T07:14:01.757Z,16.80
2023-05-23T07:16:40.972Z,16.80
2023-05-23T07:19:09.963Z,16.80
2023-05-23T07:21:47.550Z,16.70
2023-05-23T07:24:18.507Z,16.80
2023-05-23T07:26:46.608Z,16.80
2023-05-23T07:29:16.444Z,16.80
2023-05-23T07:31:46.704Z,16.70
2023-05-23T07:34:15.871Z,16.60
2023-05-23T07:36:52.215Z,16.50
2023-05-23T07:39:22.650Z,16.50
2023-05-23T07:41:52.341Z,16.50
2023-05-23T07:44:25.219Z,16.60
2023-05-23T07:46:54.791Z,16.70
2023-05-23T07:49:23.317Z,16.80
2023-05-23T07:51:51.711Z,16.80
2023-05-23T07:54:22.030Z,16.80
2023-05-23T07:56:55.008Z,16.80
2023-05-23T07:59:24.741Z,16.90
2023-05-23T08:01:53.498Z,17.00
2023-05-23T08:04:24.059Z,17.10
2023-05-23T08:07:04.229Z,17.10
2023-05-23T08:09:44.215Z,17.10
2023-05-23T08:12:16.443Z,17.10
2023-05-23T08:14:51.361Z,17.10
2023-05-23T08:17:25.497Z,17.10
2023-05-23T08:19:54.603Z,17.20
2023-05-23T08:22:22.850Z,17.20
2023-05-23T08:24:51.571Z,17.30
2023-05-23T08:27:20.032Z,17.30
2023-05-23T08:29:55.965Z,17.40
2023-05-23T08:32:24.897Z,17.50
2023-05-23T08:34:53.954Z,17.50
2023-05-23T08:37:22.380Z,17.50
2023-05-23T08:39:53.250Z,17.40
2023-05-23T08:42:44.411Z,17.40
2023-05-23T08:45:17.180Z,17.30
2023-05-23T08:47:47.052Z,17.30
2023-05-23T08:50:20.181Z,17.30
2023-05-23T08:52:56.918Z,17.30
2023-05-23T08:55:29.083Z,17.40
2023-05-23T08:58:00.412Z,17.70
2023-05-23T09:00:46.962Z,17.80
2023-05-23T09:03:15.534Z,17.90
2023-05-23T09:06:02.360Z,18.00
2023-05-23T09:08:33.664Z,18.20
2023-05-23T09:11:03.162Z,18.40
2023-05-23T09:13:33.920Z,18.60
2023-05-23T09:16:07.572Z,19.00
2023-05-23T09:18:43.528Z,19.30
2023-05-23T09:21:15.321Z,19.50
2023-05-23T09:23:55.632Z,19.60
2023-05-23T09:26:24.301Z,19.50
2023-05-23T09:28:52.516Z,19.50
2023-05-23T09:31:28.969Z,19.40
2023-05-23T09:33:59.529Z,19.30
2023-05-23T09:36:32.604Z,19.40
2023-05-23T09:39:05.219Z,19.30
2023-05-23T09:41:35.262Z,19.20
2023-05-23T09:44:07.576Z,19.20
2023-05-23T09:46:39.565Z,19.10
2023-05-23T09:49:18.969Z,19.10
2023-05-23T09:51:58.665Z,19.00
2023-05-23T09:54:26.967Z,19.10
2023-05-23T09:56:57.063Z,19.10
2023-05-23T09:59:29.600Z,19.20
2023-05-23T10:02:01.708Z,19.30
2023-05-23T10:04:32.808Z,19.40
2023-05-23T10:07:08.757Z,19.50
2023-05-23T10:09:40.661Z,19.60
2023-05-23T10:12:46.007Z,19.80
2023-05-23T10:15:17.437Z,19.80
2023-05-23T10:18:05.101Z,19.70
2023-05-23T10:20:34.126Z,19.70
2023-05-23T10:23:05.246Z,19.60
2023-05-23T10:25:34.590Z,19.50
2023-05-23T10:28:04.284Z,19.60
2023-05-23T10:30:33.005Z,19.50
2023-05-23T10:33:04.735Z,19.50
2023-05-23T10:35:51.165Z,19.30
2023-05-23T10:38:31.937Z,19.10
2023-05-23T10:41:09.228Z,19.00
2023-05-23T10:43:44.395Z,18.80
2023-05-23T10:46:14.401Z,18.70
2023-05-23T10:48:45.451Z,18.70
2023-05-23T10:51:14.903Z,18.90
2023-05-23T10:53:45.074Z,19.10
2023-05-23T10:56:20.616Z,19.30
2023-05-23T10:58:53.085Z,19.40
2023-05-23T11:01:21.669Z,19.30
2023-05-23T11:03:56.204Z,19.20
2023-05-23T11:06:32.732Z,18.90
2023-05-23T11:09:07.302Z,18.70
2023-05-23T11:11:54.206Z,18.40
2023-05-23T11:14:32.504Z,18.30
2023-05-23T11:17:01.017Z,18.40
2023-05-23T11:19:30.568Z,18.50
2023-05-23T11:22:02.196Z,18.60
2023-05-23T11:24:50.902Z,18.70
2023-05-23T11:27:21.378Z,18.90
2023-05-23T11:29:59.076Z,19.20
2023-05-23T11:32:29.898Z,19.40
2023-05-23T11:35:01.226Z,19.80
2023-05-23T11:37:30.084Z,20.00
2023-05-23T11:39:58.454Z,20.20
2023-05-23T11:42:26.870Z,20.30
2023-05-23T11:44:55.074Z,20.30
2023-05-23T11:47:23.148Z,20.40
2023-05-23T11:49:51.232Z,20.40
2023-05-23T11:52:20.728Z,20.40
2023-05-23T11:54:48.785Z,20.20
2023-05-23T11:57:17.015Z,20.20
2023-05-23T11:59:45.994Z,20.10
2023-05-23T12:02:14.110Z,20.00
2023-05-23T12:04:42.482Z,19.80
2023-05-23T12:07:10.741Z,19.80
2023-05-23T12:09:46.818Z,19.70
2023-05-23T12:12:15.023Z,19.70
2023-05-23T12:14:44.728Z,19.70
2023-05-23T12:17:14.003Z,19.70
2023-05-23T12:19:47.873Z,19.80
2023-05-23T12:22:15.974Z,19.80
2023-05-23T12:24:48.543Z,19.80
2023-05-23T12:27:18.589Z,19.70
2023-05-23T12:29:52.739Z,19.50
2023-05-23T12:32:21.378Z,19.40
2023-05-23T12:34:50.962Z,19.30
2023-05-23T12:37:20.443Z,19.30
2023-05-23T12:39:50.376Z,19.40
2023-05-23T12:42:18.464Z,19.40
2023-05-23T12:44:48.593Z,19.30
2023-05-23T12:47:16.779Z,19.10
2023-05-23T12:49:46.987Z,18.90
2023-05-23T12:52:15.543Z,18.80
2023-05-23T12:54:44.312Z,18.70
2023-05-23T12:57:13.768Z,18.90
2023-05-23T12:59:41.829Z,19.10
2023-05-23T13:02:09.967Z,19.50
2023-05-23T13:04:37.974Z,19.70
2023-05-23T13:07:06.583Z,19.90
2023-05-23T13:09:34.674Z,20.00
2023-05-23T13:12:02.758Z,19.90
2023-05-23T13:14:32.475Z,19.80
2023-05-23T13:17:01.318Z,19.60
2023-05-23T13:19:29.570Z,19.40
2023-05-23T13:21:57.628Z,19.40
2023-05-23T13:24:25.712Z,19.50
2023-05-23T13:26:54.313Z,19.50
2023-05-23T13:29:22.729Z,19.60
2023-05-23T13:31:53.211Z,19.70
2023-05-23T13:34:21.844Z,19.80
2023-05-23T13:36:50.294Z,19.70
2023-05-23T13:39:19.780Z,19.70
2023-05-23T13:41:48.786Z,19.80
2023-05-23T13:44:17.097Z,19.70
2023-05-23T13:46:45.602Z,19.80
2023-05-23T13:49:15.169Z,19.80
2023-05-23T13:51:44.411Z,19.70
2023-05-23T13:54:13.515Z,19.50
2023-05-23T13:56:41.757Z,19.40
2023-05-23T13:59:09.950Z,19.30
2023-05-23T14:01:38.184Z,19.30
2023-05-23T14:04:07.315Z,19.40
2023-05-23T14:06:36.870Z,19.50
2023-05-23T14:09:05.422Z,19.70
2023-05-23T14:11:35.484Z,19.80
2023-05-23T14:14:03.634Z,20.00
2023-05-23T14:16:32.280Z,20.00
2023-05-23T14:19:00.727Z,20.10
2023-05-23T14:21:29.296Z,20.10
2023-05-23T14:23:58.943Z,20.20
2023-05-23T14:26:27.451Z,20.20
2023-05-23T14:28:57.706Z,20.10
2023-05-23T14:31:26.281Z,20.10
2023-05-23T14:33:54.397Z,19.80
2023-05-23T14:36:22.370Z,19.70
2023-05-23T14:38:51.382Z,19.80
2023-05-23T14:41:21.705Z,19.90
2023-05-23T14:43:49.822Z,19.90
2023-05-23T14:46:19.455Z,20.00
2023-05-23T14:48:47.771Z,20.10
2023-05-23T14:51:30.319Z,20.10
2023-05-23T14:54:06.290Z,20.10
2023-05-23T14:56:36.194Z,20.00
2023-05-23T14:59:04.521Z,19.90
2023-05-23T15:01:33.189Z,19.90
2023-05-23T15:04:03.023Z,19.90
2023-05-23T15:06:31.902Z,20.10
2023-05-23T15:09:01.704Z,20.00
2023-05-23T15:11:30.132Z,20.10
2023-05-23T15:13:59.828Z,20.10
2023-05-23T15:16:32.368Z,20.20
2023-05-23T15:19:00.722Z,20.00
2023-05-23T15:21:29.018Z,19.80
2023-05-23T15:23:57.770Z,19.50
2023-05-23T15:26:28.197Z,19.30
2023-05-23T15:28:56.756Z,19.20
2023-05-23T15:31:26.515Z,19.20
2023-05-23T15:33:54.672Z,19.20
2023-05-23T15:36:24.861Z,19.00
2023-05-23T15:38:52.995Z,18.80
2023-05-23T15:41:21.377Z,18.60
2023-05-23T15:43:49.651Z,18.50
2023-05-23T15:46:17.820Z,18.40
2023-05-23T15:48:47.427Z,18.30
2023-05-23T15:51:16.452Z,18.30
2023-05-23T15:53:59.744Z,18.40
2023-05-23T15:56:29.037Z,18.40
2023-05-23T15:58:57.133Z,18.40
2023-05-23T16:01:25.458Z,18.40
2023-05-23T16:03:54.913Z,18.40
2023-05-23T16:06:23.266Z,18.40
2023-05-23T16:08:51.492Z,18.40
2023-05-23T16:11:19.629Z,18.50
2023-05-23T16:13:47.728Z,18.40
2023-05-23T16:16:16.143Z,18.40
2023-05-23T16:18:44.546Z,18.40
2023-05-23T16:21:14.209Z,18.30
2023-05-23T16:23:45.350Z,18.20
2023-05-23T16:26:13.652Z,18.20
2023-05-23T16:28:43.478Z,18.10
2023-05-23T16:31:13.995Z,18.00
2023-05-23T16:33:42.171Z,17.90
2023-05-23T16:36:10.282Z,17.80
2023-05-23T16:38:40.344Z,17.70
2023-05-23T16:41:08.634Z,17.70
2023-05-23T16:43:36.842Z,17.70
2023-05-23T16:46:05.510Z,17.70
2023-05-23T16:48:33.631Z,17.70
2023-05-23T16:51:01.664Z,17.70
2023-05-23T16:53:29.834Z,17.70
2023-05-23T16:55:59.234Z,17.70
2023-05-23T16:58:27.517Z,17.80
2023-05-23T17:00:56.056Z,17.90
2023-05-23T17:03:24.506Z,17.90
2023-05-23T17:05:53.215Z,17.80
2023-05-23T17:08:21.291Z,17.60
2023-05-23T17:10:49.684Z,17.40
2023-05-23T17:13:22.574Z,17.30
2023-05-23T17:15:51.020Z,17.50
2023-05-23T17:18:20.528Z,17.60
2023-05-23T17:20:48.612Z,17.60
2023-05-23T17:23:19.018Z,17.40
2023-05-23T17:25:47.388Z,17.30
2023-05-23T17:28:15.478Z,17.10
2023-05-23T17:30:44.962Z,17.00
2023-05-23T17:33:13.461Z,16.80
2023-05-23T17:35:41.779Z,16.90
2023-05-23T17:38:13.000Z,16.60
2023-05-23T17:40:41.946Z,16.50
2023-05-23T17:43:10.670Z,16.40
2023-05-23T17:45:38.702Z,16.40
2023-05-23T17:48:08.451Z,16.30
2023-05-23T17:50:36.880Z,16.30
2023-05-23T17:53:04.970Z,16.40
2023-05-23T17:55:35.232Z,16.30
2023-05-23T17:58:03.517Z,16.40
2023-05-23T18:00:31.712Z,16.40
2023-05-23T18:03:02.864Z,16.40
2023-05-23T18:05:32.374Z,16.50
2023-05-23T18:08:00.696Z,16.40
2023-05-23T18:10:28.839Z,16.40
2023-05-23T18:12:57.661Z,16.40
2023-05-23T18:15:25.980Z,16.30
2023-05-23T18:17:55.921Z,16.20
2023-05-23T18:20:24.285Z,16.10
2023-05-23T18:22:55.596Z,16.10
2023-05-23T18:25:27.466Z,15.90
2023-05-23T18:27:56.071Z,15.90
2023-05-23T18:30:24.224Z,15.80
2023-05-23T18:32:52.312Z,15.60
2023-05-23T18:35:20.406Z,15.50
2023-05-23T18:37:48.975Z,15.40
2023-05-23T18:40:18.792Z,15.30
2023-05-23T18:42:47.307Z,15.10
2023-05-23T18:45:21.531Z,15.00
2023-05-23T18:47:49.814Z,14.80
2023-05-23T18:50:21.176Z,14.70
2023-05-23T18:52:49.164Z,14.50
2023-05-23T18:55:19.849Z,14.40
2023-05-23T18:57:47.878Z,14.40
2023-05-23T19:00:16.136Z,14.30
2023-05-23T19:02:45.695Z,14.20
2023-05-23T19:05:16.175Z,14.10
2023-05-23T19:07:44.237Z,14.10
2023-05-23T19:10:12.975Z,14.00
2023-05-23T19:12:42.500Z,13.90
2023-05-23T19:15:11.735Z,13.80
2023-05-23T19:17:39.813Z,13.70
2023-05-23T19:20:09.505Z,13.70
2023-05-23T19:22:50.329Z,13.50
2023-05-23T19:25:19.456Z,13.50
2023-05-23T19:27:48.949Z,13.30
2023-05-23T19:30:17.197Z,13.30
2023-05-23T19:32:45.289Z,13.10
2023-05-23T19:35:16.329Z,13.10
2023-05-23T19:37:44.982Z,13.00
2023-05-23T19:40:13.728Z,13.00
2023-05-23T19:42:44.115Z,13.00
2023-05-23T19:45:14.524Z,13.00
2023-05-23T19:47:42.825Z,12.90
2023-05-23T19:50:12.597Z,12.90
2023-05-23T19:52:41.048Z,12.80
2023-05-23T19:55:10.118Z,12.70
2023-05-23T19:57:38.195Z,12.60
2023-05-23T20:00:09.390Z,12.60
2023-05-23T20:02:38.952Z,12.50
2023-05-23T20:05:08.246Z,12.40
2023-05-23T20:07:37.590Z,12.50
2023-05-23T20:10:06.679Z,12.40
2023-05-23T20:12:34.942Z,12.40
2023-05-23T20:15:04.154Z,12.30
2023-05-23T20:17:32.277Z,12.30
2023-05-23T20:20:02.578Z,12.30
2023-05-23T20:22:30.613Z,12.20
2023-05-23T20:24:58.620Z,12.20
2023-05-23T20:27:26.765Z,12.20
2023-05-23T20:29:54.774Z,12.00
2023-05-23T20:34:50.964Z,12.00
2023-05-23T20:37:20.499Z,12.00
2023-05-23T20:39:49.344Z,11.90
2023-05-23T20:42:17.529Z,11.90
2023-05-23T20:44:47.950Z,11.80
2023-05-23T20:47:17.655Z,11.70
2023-05-23T20:49:47.766Z,11.60
2023-05-23T20:52:15.916Z,11.60
2023-05-23T20:54:48.061Z,11.50
2023-05-23T20:57:16.336Z,11.50
2023-05-23T20:59:44.564Z,11.40
2023-05-23T21:02:13.176Z,11.30
2023-05-23T21:04:41.228Z,11.30
2023-05-23T21:07:09.222Z,11.30
2023-05-23T21:09:37.181Z,11.20
2023-05-23T21:12:11.027Z,11.20
2023-05-23T21:14:39.058Z,11.20
2023-05-23T21:17:07.159Z,11.10
2023-05-23T21:19:35.240Z,11.10
2023-05-23T21:22:03.306Z,11.00
2023-05-23T21:24:31.833Z,11.10
2023-05-23T21:27:01.660Z,11.00
2023-05-23T21:29:31.052Z,11.00
2023-05-23T21:31:59.230Z,11.00
2023-05-23T21:34:27.280Z,11.00
2023-05-23T21:36:55.329Z,10.90
2023-05-23T21:39:23.387Z,11.00
2023-05-23T21:41:51.394Z,11.10
2023-05-23T21:44:20.094Z,11.20
2023-05-23T21:46:49.518Z,11.30
2023-05-23T21:49:17.675Z,11.30
2023-05-23T21:51:45.758Z,11.40
2023-05-23T21:54:13.819Z,11.40
2023-05-23T21:56:41.956Z,11.40
2023-05-23T21:59:10.368Z,11.40
2023-05-23T22:01:38.538Z,11.50
2023-05-23T22:04:08.074Z,11.50
2023-05-23T22:06:36.736Z,11.50
2023-05-23T22:09:05.486Z,11.40
2023-05-23T22:11:34.744Z,11.40
2023-05-23T22:14:03.132Z,11.40
2023-05-23T22:16:33.559Z,11.40
2023-05-23T22:19:02.077Z,11.30
2023-05-23T22:21:31.624Z,11.30
2023-05-23T22:24:00.014Z,11.40
2023-05-23T22:26:28.355Z,11.40
2023-05-23T22:28:56.746Z,11.40
2023-05-23T22:31:25.010Z,11.40
2023-05-23T22:33:53.113Z,11.40
2023-05-23T22:36:21.913Z,11.30
2023-05-23T22:38:51.590Z,11.30
2023-05-23T22:41:19.897Z,11.20
2023-05-23T22:43:50.187Z,11.20
2023-05-23T22:46:18.270Z,11.20
2023-05-23T22:48:46.311Z,11.10
2023-05-23T22:51:14.610Z,11.10
2023-05-23T22:53:43.350Z,11.10
2023-05-23T22:56:12.737Z,11.00
2023-05-23T22:58:40.962Z,11.00
2023-05-23T23:01:09.017Z,11.00
2023-05-23T23:03:40.044Z,10.90
2023-05-23T23:06:09.170Z,10.80
2023-05-23T23:08:37.507Z,10.80
2023-05-23T23:11:05.814Z,10.70
2023-05-23T23:13:35.488Z,10.70
2023-05-23T23:16:03.499Z,10.60
2023-05-23T23:18:31.504Z,10.60
2023-05-23T23:20:59.530Z,10.60
2023-05-23T23:23:27.538Z,10.50
2023-05-23T23:25:56.093Z,10.50
2023-05-23T23:28:24.221Z,10.40
2023-05-23T23:30:53.569Z,10.40
2023-05-23T23:33:21.747Z,10.40
2023-05-23T23:35:51.706Z,10.40
2023-05-23T23:38:19.884Z,10.40
2023-05-23T23:40:47.840Z,10.30
2023-05-23T23:43:15.871Z,10.30
2023-05-23T23:45:43.859Z,10.40
2023-05-23T23:48:13.868Z,10.40
2023-05-23T23:50:42.202Z,10.40
2023-05-23T23:53:10.477Z,10.40
2023-05-23T23:55:38.466Z,10.40
2023-05-23T23:58:06.421Z,10.40
